Time;durP1;ratioP1;P1;durP2;ratioP2;P2;SDS_P1;SDS_P2;PMS_P1;PMS_P2;Temp;Humidity;BMP_temperature;BMP_pressure;BME280_temperature;BME280_humidity;BME280_pressure;Samples;Min_cycle;Max_cycle;Signal;HPM_P1;HPM_P2
2023/12/12 00:01:53;;;;;;;13.52;3.90;;;;;;;;;;4975360;28;20410;-83
2023/12/12 00:04:19;;;;;;;11.43;3.80;;;;;;;;;;4974701;28;20598;-82
2023/12/12 00:06:45;;;;;;;21.00;3.77;;;;;;;;;;4974575;28;20223;-82
2023/12/12 00:09:11;;;;;;;23.70;4.85;;;;;;;;;;4975917;28;20884;-82
2023/12/12 00:11:37;;;;;;;14.60;4.30;;;;;;;;;;4974507;28;20188;-82
2023/12/12 00:14:03;;;;;;;16.03;4.03;;;;;;;;;;4975479;28;20229;-83
2023/12/12 00:16:29;;;;;;;14.00;3.50;;;;;;;;;;4975374;28;20400;-82
2023/12/12 00:18:55;;;;;;;15.10;3.10;;;;;;;;;;4969127;28;20435;-83
2023/12/12 00:21:21;;;;;;;15.63;3.60;;;;;;;;;;4956501;29;20412;-83
2023/12/12 00:23:47;;;;;;;14.10;2.80;;;;;;;;;;4956157;29;20466;-82
2023/12/12 00:26:14;;;;;;;16.70;2.90;;;;;;;;;;4956446;29;20412;-82
2023/12/12 00:28:41;;;;;;;9.25;2.95;;;;;;;;;;4956397;28;20429;-82
2023/12/12 00:31:07;;;;;;;11.63;3.15;;;;;;;;;;4956086;28;20188;-83
2023/12/12 00:33:32;;;;;;;15.83;4.17;;;;;;;;;;4956068;29;20185;-82
2023/12/12 00:36:02;;;;;;;6.80;2.73;;;;;;;;;;4956128;28;20964;-82
2023/12/12 00:38:29;;;;;;;18.17;3.30;;;;;;;;;;4956125;28;20417;-82
2023/12/12 00:40:55;;;;;;;15.35;3.47;;;;;;;;;;4956190;28;20185;-82
2023/12/12 00:43:22;;;;;;;22.20;3.97;;;;;;;;;;4958328;28;20216;-83
2023/12/12 00:45:48;;;;;;;10.80;3.35;;;;;;;;;;4959161;28;20181;-83
2023/12/12 00:48:14;;;;;;;13.03;3.77;;;;;;;;;;4959227;28;20217;-83
2023/12/12 00:50:40;;;;;;;14.57;2.97;;;;;;;;;;4959573;28;20409;-82
2023/12/12 00:53:06;;;;;;;13.60;2.60;;;;;;;;;;4959529;29;20496;-82
2023/12/12 00:55:32;;;;;;;15.13;3.17;;;;;;;;;;4960037;29;20548;-82
2023/12/12 00:57:58;;;;;;;12.20;2.50;;;;;;;;;;4959244;28;20503;-83
2023/12/12 01:00:23;;;;;;;14.80;3.53;;;;;;;;;;4959347;28;20769;-82
2023/12/12 01:02:50;;;;;;;14.70;3.30;;;;;;;;;;4959516;28;20885;-83
2023/12/12 01:05:16;;;;;;;18.10;3.92;;;;;;;;;;4959557;29;20420;-82
2023/12/12 01:07:42;;;;;;;11.65;3.38;;;;;;;;;;4958989;29;20239;-82
2023/12/12 01:10:08;;;;;;;15.53;3.30;;;;;;;;;;4959363;29;20177;-82
2023/12/12 01:12:34;;;;;;;12.93;3.33;;;;;;;;;;4959505;29;20416;-82
2023/12/12 01:15:00;;;;;;;11.93;3.45;;;;;;;;;;4959214;29;20212;-82
2023/12/12 01:17:29;;;;;;;15.48;3.30;;;;;;;;;;4959369;29;20189;-82
2023/12/12 01:19:55;;;;;;;12.23;3.13;;;;;;;;;;4958761;29;20593;-82
2023/12/12 01:22:21;;;;;;;10.23;4.07;;;;;;;;;;4974305;28;20185;-82
2023/12/12 01:24:48;;;;;;;6.97;3.20;;;;;;;;;;4959153;29;20503;-83
2023/12/12 01:27:14;;;;;;;12.10;3.72;;;;;;;;;;4959101;28;20216;-82
2023/12/12 01:29:40;;;;;;;20.03;3.80;;;;;;;;;;4959287;28;20191;-82
2023/12/12 01:32:06;;;;;;;12.13;2.77;;;;;;;;;;4959203;29;20495;-82
2023/12/12 01:34:32;;;;;;;16.75;3.75;;;;;;;;;;4959342;29;20476;-82
2023/12/12 01:36:58;;;;;;;14.63;3.97;;;;;;;;;;4958781;29;20271;-82
2023/12/12 01:39:24;;;;;;;14.75;3.05;;;;;;;;;;4958999;29;20415;-82
2023/12/12 01:41:50;;;;;;;10.57;2.77;;;;;;;;;;4957609;29;20660;-83
2023/12/12 01:44:16;;;;;;;15.15;4.00;;;;;;;;;;4958888;28;20503;-82
2023/12/12 01:46:46;;;;;;;12.32;3.25;;;;;;;;;;4959048;29;20308;-82
2023/12/12 01:49:13;;;;;;;17.42;3.70;;;;;;;;;;4958945;28;20184;-82
2023/12/12 01:51:39;;;;;;;9.35;3.17;;;;;;;;;;4958772;28;20629;-82
2023/12/12 01:54:06;;;;;;;11.65;3.42;;;;;;;;;;4957276;28;20212;-82
2023/12/12 01:56:33;;;;;;;16.95;3.90;;;;;;;;;;4957603;28;20185;-82
2023/12/12 01:58:59;;;;;;;14.07;3.15;;;;;;;;;;4958974;29;20189;-82
2023/12/12 02:01:26;;;;;;;23.98;4.35;;;;;;;;;;4959344;28;20523;-82
2023/12/12 02:03:53;;;;;;;12.52;2.92;;;;;;;;;;4958229;28;20185;-82
2023/12/12 02:06:22;;;;;;;16.95;3.33;;;;;;;;;;4958972;29;20189;-82
2023/12/12 02:08:51;;;;;;;9.75;3.80;;;;;;;;;;4958507;28;20225;-82
2023/12/12 02:11:17;;;;;;;20.45;3.60;;;;;;;;;;4958489;29;20173;-82
2023/12/12 02:13:44;;;;;;;13.68;3.13;;;;;;;;;;4958544;28;20269;-82
2023/12/12 02:16:10;;;;;;;10.63;3.03;;;;;;;;;;4957954;29;20790;-83
2023/12/12 02:18:36;;;;;;;8.50;3.35;;;;;;;;;;4957975;29;20183;-82
2023/12/12 02:21:02;;;;;;;14.52;4.40;;;;;;;;;;4958185;28;20178;-82
2023/12/12 02:23:29;;;;;;;16.75;3.22;;;;;;;;;;4958276;29;20187;-82
2023/12/12 02:25:55;;;;;;;11.55;3.05;;;;;;;;;;4957928;29;20618;-83
2023/12/12 02:28:21;;;;;;;15.70;3.42;;;;;;;;;;4958139;28;20271;-82
2023/12/12 02:30:47;;;;;;;13.00;3.88;;;;;;;;;;4958303;29;20196;-82
2023/12/12 02:33:13;;;;;;;10.07;3.50;;;;;;;;;;4957889;29;20185;-82
2023/12/12 02:35:39;;;;;;;22.03;4.33;;;;;;;;;;4958010;28;20235;-82
2023/12/12 02:38:05;;;;;;;19.33;3.97;;;;;;;;;;4957801;28;20413;-82
2023/12/12 02:40:31;;;;;;;9.85;3.40;;;;;;;;;;4956724;29;20283;-82
2023/12/12 02:42:57;;;;;;;14.77;3.57;;;;;;;;;;4957523;29;20192;-82
2023/12/12 02:45:23;;;;;;;11.93;3.35;;;;;;;;;;4958494;29;20421;-82
2023/12/12 02:47:49;;;;;;;13.55;3.42;;;;;;;;;;4958073;29;20180;-82
2023/12/12 02:50:15;;;;;;;16.10;3.70;;;;;;;;;;4957883;28;20181;-82
2023/12/12 02:52:41;;;;;;;18.73;3.70;;;;;;;;;;4957876;29;20420;-82
2023/12/12 02:55:07;;;;;;;16.05;3.50;;;;;;;;;;4957641;29;20464;-82
2023/12/12 02:57:33;;;;;;;16.58;4.32;;;;;;;;;;4957520;28;20248;-82
2023/12/12 02:59:59;;;;;;;12.13;4.07;;;;;;;;;;4957446;29;20220;-82
2023/12/12 03:02:25;;;;;;;16.53;3.43;;;;;;;;;;4957428;29;20184;-82
2023/12/12 03:04:51;;;;;;;9.35;2.78;;;;;;;;;;4957717;28;20468;-81
2023/12/12 03:07:17;;;;;;;17.05;4.30;;;;;;;;;;4956939;29;20229;-81
2023/12/12 03:09:43;;;;;;;17.77;3.40;;;;;;;;;;4957531;28;20189;-81
2023/12/12 03:12:09;;;;;;;13.48;3.50;;;;;;;;;;4957423;29;20408;-81
2023/12/12 03:14:37;;;;;;;13.17;4.73;;;;;;;;;;4957160;29;20216;-81
2023/12/12 03:17:03;;;;;;;12.10;3.45;;;;;;;;;;4956951;28;20440;-81
2023/12/12 03:19:29;;;;;;;15.55;3.88;;;;;;;;;;4957300;29;20181;-81
2023/12/12 03:21:55;;;;;;;17.52;3.55;;;;;;;;;;4957133;28;20187;-82
2023/12/12 03:24:21;;;;;;;13.70;3.20;;;;;;;;;;4957606;29;20615;-82
2023/12/12 03:26:47;;;;;;;15.77;3.43;;;;;;;;;;4957510;29;20423;-81
2023/12/12 03:29:13;;;;;;;8.50;3.33;;;;;;;;;;4956873;28;20427;-81
2023/12/12 03:31:40;;;;;;;13.40;3.75;;;;;;;;;;4957635;28;20238;-81
2023/12/12 03:34:06;;;;;;;11.45;2.78;;;;;;;;;;4957429;29;20199;-81
2023/12/12 03:36:32;;;;;;;16.83;4.47;;;;;;;;;;4957688;29;20192;-81
2023/12/12 03:38:58;;;;;;;12.27;3.58;;;;;;;;;;4956809;28;20574;-82
2023/12/12 03:41:24;;;;;;;11.03;2.90;;;;;;;;;;4957110;28;20179;-81
2023/12/12 03:43:50;;;;;;;12.30;3.13;;;;;;;;;;4957221;28;20416;-81
2023/12/12 03:46:18;;;;;;;19.13;3.45;;;;;;;;;;4957049;29;20192;-81
2023/12/12 03:48:44;;;;;;;15.20;3.22;;;;;;;;;;4956939;28;20189;-81
2023/12/12 03:51:11;;;;;;;12.20;3.47;;;;;;;;;;4956745;29;20184;-81
2023/12/12 03:53:37;;;;;;;15.13;3.97;;;;;;;;;;4957065;28;20200;-81
2023/12/12 03:56:03;;;;;;;5.85;2.45;;;;;;;;;;4956448;29;20208;-81
2023/12/12 03:58:29;;;;;;;21.67;4.40;;;;;;;;;;4957706;29;20188;-81
2023/12/12 04:00:55;;;;;;;8.57;2.30;;;;;;;;;;4956988;29;20713;-81
2023/12/12 04:03:21;;;;;;;12.55;3.85;;;;;;;;;;4957166;29;20318;-81
2023/12/12 04:05:48;;;;;;;23.45;3.25;;;;;;;;;;4957560;29;20187;-81
2023/12/12 04:08:14;;;;;;;10.65;2.88;;;;;;;;;;4956758;28;20714;-81
2023/12/12 04:10:39;;;;;;;13.90;3.42;;;;;;;;;;4957609;29;20191;-81
2023/12/12 04:13:05;;;;;;;13.80;3.87;;;;;;;;;;4956625;28;20177;-81
2023/12/12 04:15:31;;;;;;;10.80;2.73;;;;;;;;;;4957017;29;20549;-81
2023/12/12 04:17:57;;;;;;;16.67;3.95;;;;;;;;;;4958929;28;20887;-82
2023/12/12 04:20:23;;;;;;;17.20;3.73;;;;;;;;;;4960504;29;20181;-82
2023/12/12 04:22:49;;;;;;;14.57;2.85;;;;;;;;;;4960088;29;20792;-81
2023/12/12 04:25:15;;;;;;;9.23;2.47;;;;;;;;;;4960573;28;20192;-81
2023/12/12 04:27:41;;;;;;;12.20;3.35;;;;;;;;;;4960561;29;20397;-81
2023/12/12 04:30:07;;;;;;;16.60;2.90;;;;;;;;;;4960319;28;20520;-82
2023/12/12 04:32:34;;;;;;;13.55;3.05;;;;;;;;;;4960614;29;20991;-81
2023/12/12 04:35:00;;;;;;;8.32;2.38;;;;;;;;;;4960500;29;20240;-81
2023/12/12 04:37:26;;;;;;;15.63;3.22;;;;;;;;;;4960763;28;20202;-81
2023/12/12 04:39:52;;;;;;;14.82;3.55;;;;;;;;;;4960444;28;20183;-81
2023/12/12 04:42:19;;;;;;;11.80;3.00;;;;;;;;;;4960007;28;20672;-81
2023/12/12 04:44:45;;;;;;;15.60;3.72;;;;;;;;;;4960776;28;20417;-81
2023/12/12 04:47:13;;;;;;;13.00;3.85;;;;;;;;;;4959725;28;20196;-81
2023/12/12 04:49:39;;;;;;;11.98;3.05;;;;;;;;;;4960440;28;20553;-81
2023/12/12 04:52:05;;;;;;;12.85;3.90;;;;;;;;;;4960154;29;20182;-81
2023/12/12 04:54:31;;;;;;;10.60;3.20;;;;;;;;;;4960110;29;20566;-81
2023/12/12 04:56:57;;;;;;;14.70;3.53;;;;;;;;;;4960039;28;20191;-81
2023/12/12 04:59:24;;;;;;;10.98;3.65;;;;;;;;;;4960098;28;20408;-81
2023/12/12 05:01:50;;;;;;;17.17;3.30;;;;;;;;;;4960123;28;20275;-81
2023/12/12 05:04:16;;;;;;;18.38;5.88;;;;;;;;;;4959968;29;20834;-82
2023/12/12 05:06:42;;;;;;;12.20;3.35;;;;;;;;;;4959457;28;20185;-82
2023/12/12 05:09:08;;;;;;;11.15;4.00;;;;;;;;;;4959885;29;20157;-81
2023/12/12 05:11:34;;;;;;;18.73;3.17;;;;;;;;;;4960286;28;20267;-81
2023/12/12 05:14:00;;;;;;;15.40;3.47;;;;;;;;;;4959836;29;20447;-82
2023/12/12 05:16:26;;;;;;;10.85;3.17;;;;;;;;;;4960148;29;20185;-81
2023/12/12 05:18:54;;;;;;;9.40;3.40;;;;;;;;;;4959163;28;20187;-81
2023/12/12 05:21:21;;;;;;;7.50;2.80;;;;;;;;;;4959687;28;20236;-81
2023/12/12 05:23:48;;;;;;;12.88;4.22;;;;;;;;;;4959534;28;20181;-81
2023/12/12 05:26:14;;;;;;;15.35;3.45;;;;;;;;;;4959512;28;20192;-81
2023/12/12 05:28:40;;;;;;;16.38;3.67;;;;;;;;;;4959407;28;20542;-81
2023/12/12 05:31:06;;;;;;;16.97;4.77;;;;;;;;;;4959190;29;20177;-81
2023/12/12 05:33:32;;;;;;;17.83;3.67;;;;;;;;;;4959334;29;20986;-81
2023/12/12 05:35:58;;;;;;;19.90;4.18;;;;;;;;;;4959601;28;20563;-81
2023/12/12 05:38:24;;;;;;;16.98;3.65;;;;;;;;;;4959510;29;20177;-81
2023/12/12 05:40:50;;;;;;;16.47;3.60;;;;;;;;;;4959394;29;20235;-81
2023/12/12 05:43:16;;;;;;;16.55;3.70;;;;;;;;;;4959473;29;20409;-81
2023/12/12 05:45:42;;;;;;;16.03;3.33;;;;;;;;;;4959434;29;20252;-81
2023/12/12 05:48:08;;;;;;;16.70;4.53;;;;;;;;;;4959158;28;20425;-81
2023/12/12 05:50:34;;;;;;;22.33;3.85;;;;;;;;;;4959684;29;20339;-81
2023/12/12 05:53:00;;;;;;;18.52;4.15;;;;;;;;;;4959471;29;20212;-81
2023/12/12 05:55:28;;;;;;;16.55;3.85;;;;;;;;;;4958944;29;20259;-81
2023/12/12 05:57:54;;;;;;;23.83;4.45;;;;;;;;;;4959035;28;20171;-81
2023/12/12 06:00:20;;;;;;;16.60;4.30;;;;;;;;;;4959007;29;20188;-81
2023/12/12 06:02:46;;;;;;;16.52;4.03;;;;;;;;;;4958380;29;20420;-81
2023/12/12 06:05:13;;;;;;;21.02;4.03;;;;;;;;;;4958540;29;20704;-82
2023/12/12 06:07:39;;;;;;;15.40;3.65;;;;;;;;;;4958543;28;20228;-81
2023/12/12 06:10:06;;;;;;;14.93;3.53;;;;;;;;;;4958904;28;20194;-82
2023/12/12 06:12:32;;;;;;;12.18;3.38;;;;;;;;;;4958518;29;20180;-81
2023/12/12 06:14:58;;;;;;;11.02;3.05;;;;;;;;;;4958692;28;20209;-81
2023/12/12 06:17:24;;;;;;;11.20;4.20;;;;;;;;;;4958424;28;21085;-81
2023/12/12 06:19:50;;;;;;;16.03;3.70;;;;;;;;;;4958934;29;20187;-81
2023/12/12 06:22:16;;;;;;;18.73;3.97;;;;;;;;;;4958654;29;20416;-81
2023/12/12 06:24:42;;;;;;;11.27;4.10;;;;;;;;;;4958714;29;20191;-81
2023/12/12 06:27:08;;;;;;;15.02;4.32;;;;;;;;;;4958649;29;20420;-81
2023/12/12 06:29:34;;;;;;;20.07;4.73;;;;;;;;;;4958642;29;20186;-81
2023/12/12 06:32:00;;;;;;;17.90;3.97;;;;;;;;;;4958279;28;20405;-81
2023/12/12 06:34:26;;;;;;;13.77;3.70;;;;;;;;;;4958031;29;20479;-81
2023/12/12 06:36:52;;;;;;;21.47;4.53;;;;;;;;;;4958203;29;20930;-81
2023/12/12 06:39:18;;;;;;;18.70;4.00;;;;;;;;;;4957928;28;20406;-81
2023/12/12 06:41:43;;;;;;;15.77;4.83;;;;;;;;;;4958136;29;20408;-81
2023/12/12 06:44:10;;;;;;;24.07;4.93;;;;;;;;;;4958188;29;20495;-79
2023/12/12 06:46:36;;;;;;;12.90;3.85;;;;;;;;;;4958580;28;20411;-78
2023/12/12 06:49:03;;;;;;;21.73;5.18;;;;;;;;;;4958593;28;20196;-78
2023/12/12 06:51:29;;;;;;;18.67;3.97;;;;;;;;;;4959008;28;20208;-78
2023/12/12 06:53:58;;;;;;;19.30;3.67;;;;;;;;;;4958707;29;20177;-78
2023/12/12 06:56:24;;;;;;;8.93;3.10;;;;;;;;;;4958488;28;20251;-79
2023/12/12 06:58:50;;;;;;;7.75;3.50;;;;;;;;;;4958645;28;20300;-78
2023/12/12 07:01:16;;;;;;;19.90;3.87;;;;;;;;;;4958439;29;20633;-79
2023/12/12 07:03:42;;;;;;;14.50;3.80;;;;;;;;;;4958521;28;20409;-78
2023/12/12 07:06:09;;;;;;;11.55;3.85;;;;;;;;;;4958153;29;20423;-79
2023/12/12 07:08:35;;;;;;;16.48;3.80;;;;;;;;;;4958538;28;20243;-83
2023/12/12 07:11:01;;;;;;;13.23;3.17;;;;;;;;;;4957098;29;20208;-83
2023/12/12 07:13:27;;;;;;;10.63;3.65;;;;;;;;;;4956615;28;20181;-83
2023/12/12 07:15:53;;;;;;;19.02;3.40;;;;;;;;;;4956827;29;20215;-80
2023/12/12 07:18:19;;;;;;;12.80;3.13;;;;;;;;;;4957741;28;20177;-80
2023/12/12 07:20:46;;;;;;;15.00;4.20;;;;;;;;;;4957495;28;20185;-80
2023/12/12 07:23:12;;;;;;;18.05;3.97;;;;;;;;;;4956905;28;20649;-80
2023/12/12 07:25:38;;;;;;;14.48;3.80;;;;;;;;;;4957361;29;20207;-79
2023/12/12 07:28:04;;;;;;;16.67;3.80;;;;;;;;;;4957381;29;20180;-80
2023/12/12 07:30:32;;;;;;;17.65;3.83;;;;;;;;;;4957071;28;20211;-80
2023/12/12 07:32:58;;;;;;;15.75;4.32;;;;;;;;;;4957321;28;20179;-80
2023/12/12 07:35:24;;;;;;;17.85;4.05;;;;;;;;;;4956976;29;20339;-80
2023/12/12 07:37:50;;;;;;;17.77;4.30;;;;;;;;;;4957414;28;20184;-80
2023/12/12 07:40:16;;;;;;;16.63;3.97;;;;;;;;;;4957007;29;20211;-81
2023/12/12 07:42:42;;;;;;;22.67;6.18;;;;;;;;;;4956895;28;20404;-80
2023/12/12 07:45:09;;;;;;;16.13;4.00;;;;;;;;;;4957320;28;20283;-80
2023/12/12 07:47:35;;;;;;;7.40;3.90;;;;;;;;;;4956735;28;20426;-80
2023/12/12 07:50:05;;;;;;;19.83;4.20;;;;;;;;;;4957072;28;20180;-80
2023/12/12 07:52:31;;;;;;;15.70;4.40;;;;;;;;;;4958576;28;20268;-80
2023/12/12 07:54:57;;;;;;;21.02;5.65;;;;;;;;;;4961134;28;20213;-80
2023/12/12 07:57:23;;;;;;;27.65;4.63;;;;;;;;;;4960686;29;20185;-80
2023/12/12 07:59:49;;;;;;;14.13;4.13;;;;;;;;;;4960997;28;20183;-80
2023/12/12 08:02:15;;;;;;;17.73;4.47;;;;;;;;;;4960711;28;20411;-81
2023/12/12 08:04:41;;;;;;;15.37;4.30;;;;;;;;;;4960664;29;20778;-80
2023/12/12 08:07:07;;;;;;;17.90;4.20;;;;;;;;;;4961015;28;20819;-80
2023/12/12 08:09:33;;;;;;;21.87;4.70;;;;;;;;;;4960409;28;20479;-80
2023/12/12 08:11:59;;;;;;;19.15;4.38;;;;;;;;;;4960494;29;20762;-80
2023/12/12 08:14:26;;;;;;;13.70;4.67;;;;;;;;;;4960460;29;20211;-80
2023/12/12 08:16:53;;;;;;;13.30;4.78;;;;;;;;;;4960416;28;20410;-80
2023/12/12 08:19:20;;;;;;;10.68;3.90;;;;;;;;;;4959138;29;20537;-80
2023/12/12 08:21:46;;;;;;;11.25;5.32;;;;;;;;;;4960481;28;20222;-80
2023/12/12 08:24:12;;;;;;;15.13;4.07;;;;;;;;;;4960071;29;20176;-85
2023/12/12 08:26:42;;;;;;;15.57;4.30;;;;;;;;;;4960101;28;20434;-80
2023/12/12 08:29:08;;;;;;;17.80;4.30;;;;;;;;;;4961075;28;20176;-80
2023/12/12 08:31:34;;;;;;;14.88;5.47;;;;;;;;;;4959793;29;20518;-80
2023/12/12 08:34:00;;;;;;;16.43;4.93;;;;;;;;;;4960842;29;20229;-80
2023/12/12 08:36:26;;;;;;;14.82;4.80;;;;;;;;;;4960038;28;20408;-80
2023/12/12 08:38:53;;;;;;;11.30;4.40;;;;;;;;;;4960492;29;20193;-80
2023/12/12 08:41:19;;;;;;;16.33;4.93;;;;;;;;;;4960132;28;20595;-80
2023/12/12 08:43:45;;;;;;;15.60;5.07;;;;;;;;;;4960245;29;20215;-80
2023/12/12 08:46:11;;;;;;;11.53;4.73;;;;;;;;;;4960058;29;20574;-80
2023/12/12 08:48:38;;;;;;;15.57;4.80;;;;;;;;;;4958423;29;20447;-80
2023/12/12 08:51:04;;;;;;;16.50;5.55;;;;;;;;;;4960463;28;20422;-80
2023/12/12 08:53:30;;;;;;;16.02;5.95;;;;;;;;;;4960016;29;20265;-80
2023/12/12 08:55:56;;;;;;;15.33;5.47;;;;;;;;;;4960155;28;20243;-80
2023/12/12 08:58:25;;;;;;;18.13;4.40;;;;;;;;;;4960067;29;20454;-81
2023/12/12 09:00:54;;;;;;;16.05;4.55;;;;;;;;;;4960148;29;20175;-80
2023/12/12 09:03:20;;;;;;;14.57;4.72;;;;;;;;;;4958961;28;20531;-80
2023/12/12 09:05:46;;;;;;;13.73;4.30;;;;;;;;;;4959308;29;20192;-80
2023/12/12 09:08:12;;;;;;;9.30;4.10;;;;;;;;;;4959412;28;20248;-80
2023/12/12 09:10:38;;;;;;;9.85;4.10;;;;;;;;;;4959535;29;20411;-80
2023/12/12 09:13:04;;;;;;;15.80;4.38;;;;;;;;;;4960105;28;20216;-80
2023/12/12 09:15:31;;;;;;;10.02;3.95;;;;;;;;;;4959204;29;20701;-81
2023/12/12 09:17:58;;;;;;;17.38;3.45;;;;;;;;;;4959516;29;20196;-80
2023/12/12 09:20:24;;;;;;;13.68;3.40;;;;;;;;;;4959180;29;20185;-81
2023/12/12 09:22:50;;;;;;;7.23;3.33;;;;;;;;;;4959220;28;20264;-80
2023/12/12 09:25:15;;;;;;;7.57;3.20;;;;;;;;;;4958867;29;20424;-86
2023/12/12 09:27:41;;;;;;;5.43;2.90;;;;;;;;;;4959034;29;20412;-80
2023/12/12 09:30:07;;;;;;;12.37;2.73;;;;;;;;;;4959119;29;20419;-80
2023/12/12 09:32:33;;;;;;;10.88;3.80;;;;;;;;;;4958778;28;20928;-80
2023/12/12 09:34:59;;;;;;;7.47;3.20;;;;;;;;;;4958766;29;20212;-80
2023/12/12 09:37:26;;;;;;;5.10;2.30;;;;;;;;;;4958738;28;20770;-80
2023/12/12 09:39:52;;;;;;;6.57;2.83;;;;;;;;;;4959035;28;20755;-80
2023/12/12 09:42:21;;;;;;;9.10;2.53;;;;;;;;;;4959378;29;20184;-81
2023/12/12 09:44:53;;;;;;;16.27;3.92;;;;;;;;;;4959416;28;20413;-80
2023/12/12 09:47:19;;;;;;;8.55;3.20;;;;;;;;;;4958906;28;20181;-81
2023/12/12 09:49:46;;;;;;;11.90;3.03;;;;;;;;;;4958896;28;20177;-81
2023/12/12 09:52:14;;;;;;;16.38;5.10;;;;;;;;;;4959329;29;20613;-80
2023/12/12 09:54:40;;;;;;;10.63;3.72;;;;;;;;;;4959021;28;20276;-80
2023/12/12 09:57:06;;;;;;;16.45;4.32;;;;;;;;;;4958834;28;20535;-80
2023/12/12 09:59:33;;;;;;;6.80;3.30;;;;;;;;;;4958074;28;20252;-80
2023/12/12 10:01:59;;;;;;;8.65;3.22;;;;;;;;;;4958495;28;20252;-80
2023/12/12 10:04:26;;;;;;;5.07;2.63;;;;;;;;;;4957988;28;20272;-81
2023/12/12 10:06:54;;;;;;;14.18;3.92;;;;;;;;;;4958231;28;20574;-81
2023/12/12 10:09:24;;;;;;;10.55;3.60;;;;;;;;;;4958623;29;20701;-81
2023/12/12 10:11:50;;;;;;;7.93;2.85;;;;;;;;;;4962076;28;20223;-80
2023/12/12 10:14:35;;;;;;;8.80;3.00;;;;;;;;;;4957857;28;20264;-80
2023/12/12 10:17:02;;;;;;;5.43;2.65;;;;;;;;;;4957938;28;20467;-80
2023/12/12 10:19:28;;;;;;;9.73;3.17;;;;;;;;;;4958911;28;20188;-80
2023/12/12 10:21:54;;;;;;;12.93;3.27;;;;;;;;;;4958879;29;20185;-80
2023/12/12 10:24:26;;;;;;;4.33;2.43;;;;;;;;;;4958054;29;20917;-81
2023/12/12 10:26:52;;;;;;;10.75;2.78;;;;;;;;;;4958437;28;20506;-80
2023/12/12 10:29:21;;;;;;;5.63;2.20;;;;;;;;;;4958378;28;20653;-80
2023/12/12 10:31:47;;;;;;;11.82;2.90;;;;;;;;;;4958521;29;20411;-80
2023/12/12 10:34:13;;;;;;;5.60;2.10;;;;;;;;;;4957660;28;20232;-80
2023/12/12 10:36:42;;;;;;;5.23;2.03;;;;;;;;;;4957570;29;20189;-80
2023/12/12 10:39:12;;;;;;;10.85;2.70;;;;;;;;;;4957963;28;20422;-80
2023/12/12 10:41:38;;;;;;;9.80;2.35;;;;;;;;;;4957489;28;20275;-80
2023/12/12 10:44:06;;;;;;;11.93;2.43;;;;;;;;;;4958030;28;20208;-80
2023/12/12 10:46:36;;;;;;;8.35;2.63;;;;;;;;;;4958090;28;20423;-81
2023/12/12 10:49:02;;;;;;;5.85;2.65;;;;;;;;;;4958194;28;20325;-80
2023/12/12 10:51:29;;;;;;;4.38;2.45;;;;;;;;;;4957388;29;20175;-81
2023/12/12 10:53:55;;;;;;;8.18;3.22;;;;;;;;;;4957293;28;20181;-82
2023/12/12 10:56:21;;;;;;;7.07;2.85;;;;;;;;;;4956971;29;20208;-82
2023/12/12 10:58:51;;;;;;;7.25;2.47;;;;;;;;;;4956758;29;20192;-81
2023/12/12 11:01:18;;;;;;;9.00;3.10;;;;;;;;;;4957276;29;20179;-81
2023/12/12 11:03:45;;;;;;;10.05;3.55;;;;;;;;;;4957031;28;20184;-81
2023/12/12 11:06:11;;;;;;;9.82;2.70;;;;;;;;;;4957016;29;20587;-81
2023/12/12 11:08:37;;;;;;;6.65;2.63;;;;;;;;;;4956759;28;20689;-82
2023/12/12 11:11:06;;;;;;;7.15;3.13;;;;;;;;;;4956875;28;20177;-81
2023/12/12 11:13:34;;;;;;;4.47;2.92;;;;;;;;;;4956948;29;20173;-81
2023/12/12 11:16:02;;;;;;;7.50;3.28;;;;;;;;;;4957012;28;20252;-81
2023/12/12 11:18:27;;;;;;;13.35;3.40;;;;;;;;;;4956611;29;20189;-82
2023/12/12 11:20:53;;;;;;;12.70;3.53;;;;;;;;;;4956511;29;20183;-81
2023/12/12 11:23:40;;;;;;;8.15;3.35;;;;;;;;;;4956714;29;20412;-80
2023/12/12 11:26:06;;;;;;;18.58;4.53;;;;;;;;;;4958936;28;20600;-80
2023/12/12 11:28:35;;;;;;;9.18;4.63;;;;;;;;;;4956980;29;20191;-80
2023/12/12 11:31:01;;;;;;;12.15;5.60;;;;;;;;;;4956694;28;20645;-80
2023/12/12 11:33:29;;;;;;;13.50;4.15;;;;;;;;;;4956954;29;20181;-81
2023/12/12 11:35:55;;;;;;;10.95;5.03;;;;;;;;;;4956719;29;20295;-81
2023/12/12 11:38:33;;;;;;;20.43;5.37;;;;;;;;;;4956835;28;20696;-81
2023/12/12 11:41:17;;;;;;;16.33;5.22;;;;;;;;;;4956799;28;20425;-80
2023/12/12 11:43:44;;;;;;;16.33;4.93;;;;;;;;;;4956302;28;20264;-81
2023/12/12 11:46:25;;;;;;;12.93;4.45;;;;;;;;;;4957136;28;20185;-81
2023/12/12 11:48:51;;;;;;;8.85;3.75;;;;;;;;;;4957183;28;20234;-80
2023/12/12 11:51:35;;;;;;;9.20;3.70;;;;;;;;;;4956663;29;20275;-81
2023/12/12 11:54:08;;;;;;;13.15;4.03;;;;;;;;;;4956855;29;20831;-81
2023/12/12 11:56:34;;;;;;;10.32;3.85;;;;;;;;;;4956617;28;20192;-81
2023/12/12 11:59:01;;;;;;;13.10;4.05;;;;;;;;;;4956436;28;20177;-81
2023/12/12 12:01:27;;;;;;;9.27;3.60;;;;;;;;;;4956352;29;20177;-81
2023/12/12 12:03:53;;;;;;;8.13;3.85;;;;;;;;;;4956232;28;20568;-81
2023/12/12 12:06:20;;;;;;;12.85;4.80;;;;;;;;;;4956308;29;20205;-80
2023/12/12 12:08:49;;;;;;;11.98;5.95;;;;;;;;;;4956282;28;20220;-81
2023/12/12 12:11:15;;;;;;;14.45;4.45;;;;;;;;;;4956498;28;20192;-80
2023/12/12 12:13:41;;;;;;;12.60;4.63;;;;;;;;;;4956235;28;20181;-81
2023/12/12 12:16:08;;;;;;;13.50;4.85;;;;;;;;;;4955984;29;20519;-81
2023/12/12 12:18:34;;;;;;;15.27;5.80;;;;;;;;;;4956073;28;20626;-81
2023/12/12 12:21:03;;;;;;;15.52;6.80;;;;;;;;;;4956148;29;20195;-81
2023/12/12 12:23:29;;;;;;;12.93;5.95;;;;;;;;;;4956183;28;20189;-81
2023/12/12 12:25:59;;;;;;;19.73;7.05;;;;;;;;;;4955842;28;20629;-81
2023/12/12 12:28:35;;;;;;;12.57;5.50;;;;;;;;;;4956091;29;20173;-81
2023/12/12 12:31:02;;;;;;;17.10;7.32;;;;;;;;;;4956316;28;20184;-80
2023/12/12 12:33:35;;;;;;;21.45;6.70;;;;;;;;;;4956274;28;20227;-81
2023/12/12 12:36:01;;;;;;;21.00;7.47;;;;;;;;;;4955934;28;20221;-81
2023/12/12 12:38:29;;;;;;;18.15;7.80;;;;;;;;;;4957097;28;20649;-82
2023/12/12 12:40:55;;;;;;;22.20;7.88;;;;;;;;;;4959999;28;20203;-80
2023/12/12 12:43:24;;;;;;;16.85;8.48;;;;;;;;;;4959756;29;20252;-80
2023/12/12 12:45:53;;;;;;;15.35;7.93;;;;;;;;;;4959777;29;20188;-80
2023/12/12 12:48:20;;;;;;;17.15;9.00;;;;;;;;;;4960151;29;20614;-80
2023/12/12 12:50:46;;;;;;;18.92;9.05;;;;;;;;;;4959359;29;20296;-81
2023/12/12 12:53:13;;;;;;;17.02;6.15;;;;;;;;;;4958152;29;20263;-80
2023/12/12 12:55:40;;;;;;;18.27;6.55;;;;;;;;;;4957894;29;20692;-81
2023/12/12 12:58:07;;;;;;;13.23;6.15;;;;;;;;;;4959345;28;20181;-81
2023/12/12 13:00:33;;;;;;;15.77;5.88;;;;;;;;;;4959218;28;20220;-81
2023/12/12 13:02:59;;;;;;;13.82;5.55;;;;;;;;;;4959264;29;20189;-80
2023/12/12 13:05:26;;;;;;;12.73;4.70;;;;;;;;;;4959398;29;20188;-81
2023/12/12 13:07:53;;;;;;;18.98;6.13;;;;;;;;;;4959152;28;20232;-81
2023/12/12 13:10:19;;;;;;;10.82;5.05;;;;;;;;;;4959351;28;20181;-81
2023/12/12 13:12:45;;;;;;;16.67;5.05;;;;;;;;;;4958906;29;20177;-81
2023/12/12 13:15:11;;;;;;;14.07;5.95;;;;;;;;;;4958930;28;20216;-81
2023/12/12 13:17:38;;;;;;;11.95;5.82;;;;;;;;;;4958981;28;20252;-81
2023/12/12 13:20:09;;;;;;;10.63;4.57;;;;;;;;;;4959105;29;20200;-81
2023/12/12 13:22:41;;;;;;;11.73;4.45;;;;;;;;;;4958253;28;20226;-81
2023/12/12 13:25:09;;;;;;;10.85;4.80;;;;;;;;;;4958798;29;20271;-81
2023/12/12 13:27:35;;;;;;;6.88;4.25;;;;;;;;;;4958473;28;20173;-81
2023/12/12 13:30:05;;;;;;;9.52;3.88;;;;;;;;;;4958653;28;20195;-81
2023/12/12 13:32:33;;;;;;;13.48;4.70;;;;;;;;;;4958273;28;20231;-82
2023/12/12 13:35:00;;;;;;;8.23;3.17;;;;;;;;;;4958534;28;20276;-81
2023/12/12 13:37:26;;;;;;;13.25;4.00;;;;;;;;;;4958650;28;20180;-81
2023/12/12 13:39:52;;;;;;;11.57;4.25;;;;;;;;;;4957012;29;20201;-81
2023/12/12 13:42:18;;;;;;;7.70;4.03;;;;;;;;;;4958510;29;20181;-81
2023/12/12 13:44:44;;;;;;;13.30;4.17;;;;;;;;;;4958319;29;20424;-81
2023/12/12 13:47:10;;;;;;;9.27;3.30;;;;;;;;;;4958855;28;20421;-81
2023/12/12 13:49:36;;;;;;;9.02;3.53;;;;;;;;;;4958403;28;20409;-82
2023/12/12 13:52:03;;;;;;;9.97;3.67;;;;;;;;;;4958586;29;20275;-81
2023/12/12 13:54:30;;;;;;;11.27;4.00;;;;;;;;;;4958560;28;20412;-81
2023/12/12 13:56:56;;;;;;;14.68;3.42;;;;;;;;;;4957927;28;20196;-81
2023/12/12 13:59:22;;;;;;;10.53;3.70;;;;;;;;;;4959170;29;20181;-79
2023/12/12 14:01:48;;;;;;;9.23;3.60;;;;;;;;;;4962515;28;20409;-80
2023/12/12 14:04:14;;;;;;;10.73;3.40;;;;;;;;;;4958527;28;20499;-81
2023/12/12 14:06:40;;;;;;;10.03;3.70;;;;;;;;;;4957937;28;20224;-82
2023/12/12 14:09:06;;;;;;;12.60;4.22;;;;;;;;;;4958580;28;20985;-81
2023/12/12 14:11:32;;;;;;;15.45;5.40;;;;;;;;;;4958376;29;20208;-84
2023/12/12 14:13:58;;;;;;;9.73;4.40;;;;;;;;;;4957817;29;20177;-81
2023/12/12 14:16:24;;;;;;;12.43;4.27;;;;;;;;;;4957735;28;20595;-81
2023/12/12 14:18:50;;;;;;;6.65;3.55;;;;;;;;;;4958059;29;20436;-81
2023/12/12 14:21:16;;;;;;;7.23;3.70;;;;;;;;;;4957940;29;20188;-80
2023/12/12 14:23:42;;;;;;;9.17;4.00;;;;;;;;;;4958238;29;20444;-81
2023/12/12 14:26:08;;;;;;;9.75;4.05;;;;;;;;;;4956608;29;20432;-81
2023/12/12 14:28:34;;;;;;;7.15;3.28;;;;;;;;;;4958014;28;20255;-82
2023/12/12 14:31:01;;;;;;;11.30;3.97;;;;;;;;;;4958087;28;20198;-81